Flight Track Log - Related Links

Times and Time Zones

All times are in EDT time to prevent confusion due to time zone crossing. See the AWE997 flight status page for this flight to view local times or setup timezone preferences in your user account.

Time Position Orientation Groundspeed Altitude Reporting Facility
EDT Latitude Longitude Course Direction KTS MPH feet Rate Location/Type
Tue 10:53:25 AM 41.9960 -87.9390 325° Northwest 166 191 1,100  Level FlightAware ADS-B
Tue 10:53:37 AM 42.0050 -87.9430 342° North 168 193 1,600 1,756 Climbing FlightAware ADS-B
Tue 10:54:06 AM 42.0250 -87.9320 22° Northeast 189 217 2,300 1,220 Climbing FlightAware ADS-B
Tue 10:54:36 AM 42.0480 -87.9080 38° Northeast 220 253 2,800 1,000 Climbing FlightAware ADS-B
Tue 10:55:00 AM 42.0690 -87.8840 40° Northeast 246 283 3,200 1,538 Climbing FlightAware ADS-B
Tue 10:55:15 AM 42.0760 -87.8640 65° Northeast 248 285 3,800 2,318 Climbing FlightAware ADS-B
Tue 10:55:44 AM 42.0790 -87.8170 85° East 257 296 4,900 2,000 Climbing FlightAware ADS-B
Tue 10:56:12 AM 42.0820 -87.7690 85° East 282 325 5,700 1,929 Climbing FlightAware ADS-B
Tue 10:56:40 AM 42.0850 -87.7210 85° East 290 334 6,700 2,357 Climbing FlightAware ADS-B
Tue 10:57:08 AM 42.0880 -87.6700 85° East 289 333 7,900 2,438 Climbing FlightAware ADS-B
Tue 10:57:44 AM 42.0810 -87.6060 98° East 285 328 9,300 2,298 Climbing FlightAware ADS-B
Tue 10:57:55 AM 42.0770 -87.5890 108° East 286 329 9,700 2,036 Climbing FlightAware ADS-B
Tue 10:58:40 AM 42.0580 -87.5110 108° East 294 338 11,200 1,823 Climbing FlightAware ADS-B
Tue 10:59:14 AM 42.0430 -87.4520 109° East 306 352 12,100 1,308 Climbing FlightAware ADS-B
Tue 10:59:58 AM 42.0220 -87.3690 109° East 338 389 12,900 929 Climbing FlightAware ADS-B
Tue 11:00:38 AM 42.0010 -87.2850 109° East 368 423 13,400 1,037 Climbing FlightAware ADS-B
Tue 11:01:19 AM 41.9790 -87.1960 108° East 380 437 14,300 1,553 Climbing FlightAware ADS-B
Tue 11:02:03 AM 41.9540 -87.0960 109° East 386 444 15,600 1,620 Climbing FlightAware ADS-B
Tue 11:02:59 AM 41.9470 -86.9560 94° East 402 463 17,000 1,250 Climbing FlightAware ADS-B
Tue 11:03:39 AM 41.9490 -86.8550 88° East 417 480 17,600 900 Climbing FlightAware ADS-B
Tue 11:04:19 AM 41.9500 -86.7480 89° East 434 499 18,200 929 Climbing FlightAware ADS-B
Tue 11:05:03 AM 41.9520 -86.6290 89° East 445 512 18,900 857 Climbing FlightAware ADS-B
Tue 11:05:43 AM 41.9530 -86.5170 89° East 456 525 19,400 911 Climbing FlightAware ADS-B
Tue 11:06:22 AM 41.9540 -86.4100 89° East 461 531 20,100 1,267 Climbing FlightAware ADS-B
Tue 11:07:13 AM 41.9560 -86.2630 89° East 458 527 21,300 1,515 Climbing FlightAware ADS-B
Tue 11:08:05 AM 41.9470 -86.1120 95° East 453 521 22,700 1,696 Climbing FlightAware ADS-B
Tue 11:08:45 AM 41.9370 -86.0040 97° East 444 511 23,900 1,538 Climbing FlightAware ADS-B
Tue 11:09:23 AM 41.9270 -85.9000 97° East 444 511 24,700 750 Climbing FlightAware ADS-B
Tue 11:10:13 AM 41.9140 -85.7580 97° East 463 533 25,000 612 Climbing FlightAware ADS-B
Tue 11:11:50 AM 41.8870 -85.4810 97° East 474 545 26,200 857 Climbing FlightAware ADS-B
Tue 11:12:33 AM 41.8740 -85.3510 98° East 472 543 27,000 1,212 Climbing FlightAware ADS-B
Tue 11:13:29 AM 41.8580 -85.1910 98° East 465 535 28,200 1,299 Climbing FlightAware ADS-B
Tue 11:14:10 AM 41.8470 -85.0820 98° East 460 529 29,100 1,215 Climbing FlightAware ADS-B
Tue 11:14:48 AM 41.8350 -84.9680 98° East 460 529 29,800 1,154 Climbing FlightAware ADS-B
Tue 11:15:28 AM 41.8230 -84.8550 98° East 459 528 30,600 1,091 Climbing FlightAware ADS-B
Tue 11:16:16 AM 41.8090 -84.7210 98° East 457 526 31,400 1,435 Climbing FlightAware ADS-B
Tue 11:17:00 AM 41.7960 -84.6000 98° East 443 510 32,800 1,200 Climbing FlightAware ADS-B
Tue 11:17:36 AM 41.7800 -84.5030 102° East 453 521 33,000 146 Climbing FlightAware ADS-B
Tue 11:18:22 AM 41.7560 -84.3830 105° East 462 532 33,000  Level FlightAware ADS-B
Tue 11:19:04 AM 41.7310 -84.2600 105° East 461 531 33,000  Level FlightAware ADS-B
Tue 11:19:48 AM 41.7060 -84.1380 105° East 464 534 33,000  Level FlightAware ADS-B
Tue 11:20:25 AM 41.6860 -84.0400 105° East 463 533 33,000  Level FlightAware ADS-B
Tue 11:21:10 AM 41.6590 -83.9110 106° East 462 532 33,000  Level FlightAware ADS-B
Tue 11:21:52 AM 41.6350 -83.7950 105° East 462 532 33,000  Level FlightAware ADS-B
Tue 11:22:36 AM 41.6110 -83.6770 105° East 465 535 33,000  Level FlightAware ADS-B
Tue 11:23:18 AM 41.5860 -83.5600 106° East 465 535 33,000  Level FlightAware ADS-B
Tue 11:23:58 AM 41.5640 -83.4560 106° East 466 536 33,000  Level FlightAware ADS-B
Tue 11:24:40 AM 41.5390 -83.3390 106° East 464 534 33,000  Level FlightAware ADS-B
Tue 11:25:20 AM 41.5150 -83.2240 106° East 465 535 33,000  Level FlightAware ADS-B
Tue 11:25:58 AM 41.4920 -83.1170 106° East 471 542 33,000  Level FlightAware ADS-B
Tue 11:26:34 AM 41.4710 -83.0190 106° East 472 543 33,000  Level FlightAware ADS-B
Tue 11:27:18 AM 41.4390 -82.8960 109° East 473 544 33,000  Level FlightAware ADS-B
Tue 11:27:58 AM 41.4110 -82.7850 109° East 471 542 33,000  Level FlightAware ADS-B
Tue 11:28:34 AM 41.3870 -82.6900 109° East 470 541 33,000  Level FlightAware ADS-B
Tue 11:29:19 AM 41.3550 -82.5670 109° East 472 543 33,000  Level FlightAware ADS-B
Tue 11:30:00 AM 41.3260 -82.4550 109° East 472 543 33,000  Level FlightAware ADS-B
Tue 11:30:41 AM 41.2970 -82.3430 109° East 473 544 33,000  Level FlightAware ADS-B
Tue 11:31:26 AM 41.2650 -82.2190 109° East 473 544 33,000  Level FlightAware ADS-B
Tue 11:32:10 AM 41.2320 -82.0960 110° East 473 544 33,000  Level FlightAware ADS-B
Tue 11:32:52 AM 41.2020 -81.9800 109° East 471 542 33,000  Level FlightAware ADS-B
Tue 11:33:32 AM 41.1740 -81.8730 109° East 471 542 33,000  Level FlightAware ADS-B
Tue 11:34:12 AM 41.1440 -81.7630 110° East 470 541 33,000  Level FlightAware ADS-B
Tue 11:34:54 AM 41.1140 -81.6480 109° East 470 541 33,000  Level FlightAware ADS-B
Tue 11:35:40 AM 41.0800 -81.5230 110° East 470 541 33,000  Level FlightAware ADS-B
Tue 11:36:31 AM 41.0420 -81.3840 110° East 470 541 33,000  Level FlightAware ADS-B
Tue 11:37:13 AM 41.0110 -81.2690 110° East 470 541 33,000  Level FlightAware ADS-B
Tue 11:38:01 AM 40.9760 -81.1410 110° East 471 542 33,000  Level FlightAware ADS-B
Tue 11:38:37 AM 40.9490 -81.0420 110° East 471 542 33,000  Level FlightAware ADS-B
Tue 11:39:29 AM 40.9130 -80.9010 109° East 468 539 33,000  Level FlightAware ADS-B
Tue 11:40:13 AM 40.8940 -80.7780 102° East 467 537 33,000  Level FlightAware ADS-B
Tue 11:40:53 AM 40.8790 -80.6650 100° East 466 536 33,000  Level FlightAware ADS-B
Tue 11:41:36 AM 40.8600 -80.5490 102° East 467 537 33,000  Level FlightAware ADS-B
Tue 11:42:14 AM 40.8300 -80.4470 111° Southeast 466 536 33,000  Level FlightAware ADS-B
Tue 11:42:58 AM 40.7940 -80.3310 112° Southeast 468 539 33,000  Level FlightAware ADS-B
Tue 11:43:41 AM 40.7580 -80.2160 112° Southeast 469 540 33,000  Level FlightAware ADS-B
Tue 11:44:23 AM 40.7230 -80.1050 113° Southeast 470 541 33,000  Level FlightAware ADS-B
Tue 11:48:28 AM 40.5430 -79.5320 112° Southeast 469 540 33,000  Level FlightAware ADS-B
Tue 11:49:09 AM 40.5040 -79.3820 109° East 468 539 33,000  Level FlightAware ADS-B
Tue 11:49:50 AM 40.4890 -79.2660 100° East 467 537 33,000  Level FlightAware ADS-B
Tue 11:50:38 AM 40.4690 -79.1140 100° East 466 536 33,000  Level FlightAware ADS-B
Tue 11:51:21 AM 40.4510 -78.9770 100° East 464 534 33,000  Level FlightAware ADS-B
Tue 11:51:51 AM 40.4400 -78.8990 100° East 465 535 33,000 -686 Level FlightAware ADS-B
Tue 11:52:31 AM 40.4250 -78.7850 100° East 468 539 32,200 -1,350 Descending FlightAware ADS-B
Tue 11:53:11 AM 40.4110 -78.6760 100° East 472 543 31,200 -1,568 Descending FlightAware ADS-B
Tue 11:53:59 AM 40.3910 -78.5330 100° East 474 545 29,900 -1,636 Descending FlightAware ADS-B
Tue 11:54:39 AM 40.3760 -78.4200 100° East 476 548 28,800 -1,658 Descending FlightAware ADS-B
Tue 11:55:15 AM 40.3620 -78.3190 100° East 473 544 27,800 -1,725 Descending FlightAware ADS-B
Tue 11:55:59 AM 40.3450 -78.1960 100° East 467 537 26,500 -1,235 Descending FlightAware ADS-B
Tue 11:56:57 AM 40.3250 -78.0470 100° East 479 551 25,700 -989 Descending FlightAware ADS-B
Tue 11:57:30 AM 40.3130 -77.9380 98° East 490 564 25,000 -686 Descending FlightAware ADS-B
Tue 11:58:07 AM 40.3120 -77.8280 91° East 491 565 24,900 -600 Descending FlightAware ADS-B
Tue 11:58:50 AM 40.3110 -77.7100 91° East 489 563 24,200 -1,286 Descending FlightAware ADS-B
Tue 11:59:31 AM 40.3090 -77.5800 91° East 476 548 23,100 -1,674 Descending FlightAware ADS-B
Tue 12:00:16 PM 40.3080 -77.4480 91° East 464 534 21,800 -1,800 Descending FlightAware ADS-B
Tue 12:00:51 PM 40.3060 -77.3600 92° East 448 516 20,700 -1,765 Descending FlightAware ADS-B
Tue 12:01:41 PM 40.3040 -77.2240 91° East 419 482 19,300 -1,694 Descending FlightAware ADS-B
Tue 12:02:16 PM 40.3030 -77.1450 91° East 404 465 18,300 -1,068 Descending FlightAware ADS-B
Tue 12:02:54 PM 40.2960 -77.0470 95° East 400 460 18,000 -220 Descending FlightAware ADS-B
Tue 12:03:38 PM 40.2730 -76.9430 106° East 406 467 18,000 -357 Level FlightAware ADS-B
Tue 12:04:18 PM 40.2510 -76.8470 107° East 405 466 17,500 -1,186 Descending FlightAware ADS-B
Tue 12:05:04 PM 40.2250 -76.7380 107° East 402 463 16,300 -1,667 Descending FlightAware ADS-B
Tue 12:05:12 PM 40.2209 -76.7192 106° East 403 464 16,000 -1,814 Descending FlightAware ADS-B
Tue 12:05:47 PM 40.2020 -76.6389 107° East 398 458 15,000 -1,775 Descending FlightAware ADS-B
Tue 12:06:23 PM 40.1825 -76.5558 107° East 395 455 13,900 -1,791 Descending FlightAware ADS-B
Tue 12:06:54 PM 40.1659 -76.4855 107° East 391 450 13,000 -1,770 Descending FlightAware ADS-B
Tue 12:07:24 PM 40.1500 -76.4182 107° East 381 438 12,100 -1,770 Descending FlightAware ADS-B
Tue 12:07:55 PM 40.1341 -76.3514 107° East 379 436 11,200 -1,560 Descending FlightAware ADS-B
Tue 12:08:14 PM 40.1242 -76.3090 107° East 378 435 10,800 -968 Descending FlightAware ADS-B
Tue 12:08:26 PM 40.1198 -76.2818 102° East 377 434 10,700  Descending FlightAware ADS-B
Tue 12:09:00 PM 40.1142 -76.2058 95° East 375 432 10,800  Climbing FlightAware ADS-B
Tue 12:09:30 PM 40.1095 -76.1378 95° East 375 432 10,700 -590 Descending FlightAware ADS-B
Tue 12:10:01 PM 40.1047 -76.0679 95° East 372 428 10,200 -1,043 Descending FlightAware ADS-B
Tue 12:10:16 PM 40.1023 -76.0343 95° East 371 427 9,900 -800 Descending FlightAware ADS-B
Tue 12:10:31 PM 40.1000 -76.0001 95° East 369 425 9,800 -375 Descending FlightAware ADS-B
Tue 12:10:48 PM 40.0974 -75.9643 95° East 362 417 9,700 -162 Descending FlightAware ADS-B
Tue 12:11:08 PM 40.0944 -75.9205 95° East 352 405 9,700 154 Level FlightAware ADS-B
Tue 12:11:27 PM 40.0916 -75.8824 95° East 325 374 9,800  Climbing FlightAware ADS-B
Tue 12:11:43 PM 40.0894 -75.8525 95° East 311 358 9,700 -581 Descending FlightAware ADS-B
Tue 12:11:58 PM 40.0873 -75.8236 95° East 301 346 9,500 -1,125 Descending FlightAware ADS-B
Tue 12:12:15 PM 40.0852 -75.7936 95° East 296 341 9,100 -1,235 Descending FlightAware ADS-B
Tue 12:12:32 PM 40.0832 -75.7643 95° East 291 335 8,800 -1,200 Descending FlightAware ADS-B
Tue 12:12:50 PM 40.0810 -75.7332 95° East 289 333 8,400 -1,371 Descending FlightAware ADS-B
Tue 12:13:07 PM 40.0795 -75.7031 94° East 284 327 8,000 -1,313 Descending FlightAware ADS-B
Tue 12:13:22 PM 40.0786 -75.6770 93° East 284 327 7,700 -1,000 Descending FlightAware ADS-B
Tue 12:13:37 PM 40.0775 -75.6512 93° East 283 326 7,500 -1,161 Descending FlightAware ADS-B
Tue 12:13:53 PM 40.0763 -75.6246 93° East 283 326 7,100 -1,273 Descending FlightAware ADS-B
Tue 12:14:10 PM 40.0749 -75.5956 94° East 281 323 6,800 -750 Descending FlightAware ADS-B
Tue 12:14:25 PM 40.0737 -75.5700 93° East 282 325 6,700 -188 Descending FlightAware ADS-B
Tue 12:14:42 PM 40.0724 -75.5419 93° East 283 326 6,700  Level FlightAware ADS-B
Tue 12:15:00 PM 40.0709 -75.5107 94° East 283 326 6,700  Level FlightAware ADS-B
Tue 12:15:16 PM 40.0696 -75.4837 94° East 282 325 6,700 -214 Level FlightAware ADS-B
Tue 12:15:28 PM 40.0686 -75.4628 94° East 280 322 6,600 -1,071 Descending FlightAware ADS-B
Tue 12:15:44 PM 40.0673 -75.4363 94° East 277 319 6,200 -1,355 Descending FlightAware ADS-B
Tue 12:15:59 PM 40.0660 -75.4116 94° East 279 321 5,900 -800 Descending FlightAware ADS-B
Tue 12:16:14 PM 40.0648 -75.3859 93° East 278 320 5,800 -316 Descending FlightAware ADS-B
Tue 12:16:37 PM 40.0629 -75.3478 94° East 280 322 5,700 -158 Descending FlightAware ADS-B
Tue 12:16:52 PM 40.0616 -75.3225 94° East 279 321 5,700  Level FlightAware ADS-B
Tue 12:17:07 PM 40.0603 -75.2966 94° East 278 320 5,700  Level FlightAware ADS-B
Tue 12:17:23 PM 40.0590 -75.2717 94° East 275 316 5,700 194 Level FlightAware ADS-B
Tue 12:17:38 PM 40.0577 -75.2460 94° East 274 315 5,800  Climbing FlightAware ADS-B
Tue 12:17:54 PM 40.0564 -75.2203 94° East 276 318 5,700 -188 Descending FlightAware ADS-B
Tue 12:18:10 PM 40.0550 -75.1926 94° East 277 319 5,700  Level FlightAware ADS-B
Tue 12:18:13 PM 40.0545 -75.1876 97° East 278 320 5,700  Level FlightAware ADS-B
Tue 12:18:16 PM 40.0537 -75.1826 102° East 279 321 5,700  Level FlightAware ADS-B
Tue 12:18:21 PM 40.0520 -75.1750 106° East 281 323 5,700 600 Level FlightAware ADS-B
Tue 12:18:26 PM 40.0496 -75.1648 107° East 283 326 5,800 600 Climbing FlightAware ADS-B
Tue 12:18:31 PM 40.0476 -75.1597 117° Southeast 284 327 5,800  Level FlightAware ADS-B
Tue 12:18:46 PM 40.0396 -75.1353 113° Southeast 284 327 5,800 -273 Level FlightAware ADS-B
Tue 12:18:53 PM 40.0360 -75.1243 113° Southeast 286 329 5,700 -600 Descending FlightAware ADS-B
Tue 12:18:56 PM 40.0342 -75.1196 117° Southeast 285 328 5,700  Level FlightAware ADS-B
Tue 12:18:59 PM 40.0321 -75.1150 121° Southeast 284 327 5,700  Level FlightAware ADS-B
Tue 12:19:03 PM 40.0288 -75.1089 125° Southeast 282 325 5,700  Level FlightAware ADS-B
Tue 12:19:09 PM 40.0246 -75.1022 129° Southeast 277 319 5,700  Level FlightAware ADS-B
Tue 12:19:24 PM 40.0116 -75.0840 133° Southeast 265 305 5,700 -364 Level FlightAware ADS-B
Tue 12:19:42 PM 39.9966 -75.0634 134° Southeast 254 292 5,500 -649 Descending FlightAware ADS-B
Tue 12:20:01 PM 39.9822 -75.0437 134° Southeast 241 277 5,300 -750 Descending FlightAware ADS-B
Tue 12:20:06 PM 39.9775 -75.0381 138° Southeast 239 275 5,200 -1,333 Descending FlightAware ADS-B
Tue 12:20:10 PM 39.9743 -75.0352 145° Southeast 240 276 5,100 -1,091 Descending FlightAware ADS-B
Tue 12:20:17 PM 39.9673 -75.0309 155° Southeast 239 275 5,000 -600 Descending FlightAware ADS-B
Tue 12:20:20 PM 39.9637 -75.0297 166° South 236 272 5,000 -857 Level FlightAware ADS-B
Tue 12:20:31 PM 39.9518 -75.0283 175° South 232 267 4,800 -1,200 Descending FlightAware ADS-B
Tue 12:20:35 PM 39.9473 -75.0287 184° South 231 266 4,700 -1,200 Descending FlightAware ADS-B
Tue 12:20:41 PM 39.9418 -75.0297 188° South 229 264 4,600 -923 Descending FlightAware ADS-B
Tue 12:20:48 PM 39.9342 -75.0316 191° South 224 258 4,500 -667 Descending FlightAware ADS-B
Tue 12:20:59 PM 39.9234 -75.0358 197° South 215 247 4,400 -800 Descending FlightAware ADS-B
Tue 12:21:03 PM 39.9198 -75.0376 201° Southwest 212 244 4,300 -857 Descending FlightAware ADS-B
Tue 12:21:06 PM 39.9171 -75.0392 204° Southwest 209 241 4,300 -600 Level FlightAware ADS-B
Tue 12:21:13 PM 39.9118 -75.0442 216° Southwest 207 238 4,200 -1,091 Descending FlightAware ADS-B
Tue 12:21:17 PM 39.9095 -75.0475 228° Southwest 199 229 4,100 -1,500 Descending FlightAware ADS-B
Tue 12:21:21 PM 39.9075 -75.0523 241° Southwest 192 221 4,000 -750 Descending FlightAware ADS-B
Tue 12:21:25 PM 39.9066 -75.0563 254° West 184 212 4,000 -750 Level FlightAware ADS-B
Tue 12:21:29 PM 39.9060 -75.0602 259° West 180 207 3,900 -1,091 Descending FlightAware ADS-B
Tue 12:21:36 PM 39.9050 -75.0676 260° West 171 197 3,800 -1,043 Descending FlightAware ADS-B
Tue 12:21:52 PM 39.9027 -75.0831 259° West 163 188 3,500 -1,161 Descending FlightAware ADS-B
Tue 12:22:07 PM 39.9001 -75.0975 257° West 157 181 3,200 -1,800 Descending FlightAware ADS-B
Tue 12:22:22 PM 39.8975 -75.1119 257° West 165 190 2,600 -2,222 Descending FlightAware ADS-B
Tue 12:22:34 PM 39.8954 -75.1232 256° West 171 197 2,200 -2,000 Descending FlightAware ADS-B
Tue 12:22:46 PM 39.8928 -75.1353 254° West 173 199 1,800 -2,000 Descending FlightAware ADS-B
Tue 12:22:58 PM 39.8902 -75.1474 254° West 174 200 1,400 -2,000 Descending FlightAware ADS-B
Tue 12:23:13 PM 39.8872 -75.1630 256° West 180 207 900 -1,615 Descending FlightAware ADS-B
Tue 12:23:24 PM 39.8850 -75.1744 256° West 173 199 700 -1,154 Descending FlightAware ADS-B
Tue 12:23:39 PM 39.8820 -75.1890 255° West 161 185 400 -1,263 Descending FlightAware ADS-B
Tue 12:23:43 PM 39.8813 -75.1923 255° West 158 182 300 -261 Descending FlightAware ADS-B
Tue 12:24:25 PM 39.8750 -75.2230 255° West 153 176 200 -143 Descending FlightAware ADS-B

Login

Don't have an account? Register now (free) for customized features, flight alerts, and more!